Time;durP1;ratioP1;P1;durP2;ratioP2;P2;SDS_P1;SDS_P2;PMS_P1;PMS_P2;Temp;Humidity;BMP_temperature;BMP_pressure;BME280_temperature;BME280_humidity;BME280_pressure;Samples;Min_cycle;Max_cycle;Signal;HPM_P1;HPM_P2
2023/09/12 00:00:33;;;;;;;53.92;42.25;;;20.30;99.90;;;;;;4988028;28;19973;-50
2023/09/12 00:02:59;;;;;;;;;;;20.30;99.90;;;;;;4992955;28;20030;-53
2023/09/12 00:05:24;;;;;;;52.80;39.78;;;20.20;99.90;;;;;;4995343;28;19977;-55
2023/09/12 00:07:51;;;;;;;;;;;20.20;99.90;;;;;;4992702;28;20049;-54
2023/09/12 00:10:17;;;;;;;49.53;38.60;;;20.30;99.90;;;;;;4988979;28;19925;-51
2023/09/12 00:12:42;;;;;;;;;;;20.30;99.90;;;;;;4991846;28;20057;-51
2023/09/12 00:15:08;;;;;;;50.00;39.30;;;20.30;99.90;;;;;;4991165;28;19918;-50
2023/09/12 00:17:34;;;;;;;;;;;20.40;99.90;;;;;;4989937;28;20200;-48
2023/09/12 00:19:59;;;;;;;52.35;41.97;;;20.40;99.90;;;;;;4989547;28;19917;-50
2023/09/12 00:22:25;;;;;;;;;;;20.40;99.90;;;;;;4991267;28;20377;-49
2023/09/12 00:24:50;;;;;;;42.65;35.30;;;20.30;99.90;;;;;;4991269;28;20490;-50
2023/09/12 00:27:16;;;;;;;;;;;20.30;99.90;;;;;;4985799;28;20088;-49
2023/09/12 00:29:42;;;;;;;54.13;40.80;;;20.20;99.90;;;;;;4990461;28;20382;-51
2023/09/12 00:32:07;;;;;;;;;;;20.20;99.90;;;;;;4992280;28;20049;-50
2023/09/12 00:34:33;;;;;;;61.30;45.50;;;20.10;99.90;;;;;;4990211;28;19924;-51
2023/09/12 00:36:58;;;;;;;;;;;20.00;99.90;;;;;;4990593;28;20050;-52
2023/09/12 00:39:24;;;;;;;57.88;44.70;;;20.00;99.90;;;;;;4989788;28;19917;-52
2023/09/12 00:41:49;;;;;;;;;;;19.90;99.90;;;;;;4990416;28;20030;-52
2023/09/12 00:44:15;;;;;;;68.97;49.97;;;19.80;99.90;;;;;;4990484;28;19976;-50
2023/09/12 00:46:41;;;;;;;65.32;49.80;;;19.80;99.90;;;;;;4991077;28;20066;-51
2023/09/12 00:49:09;;;;;;;69.22;49.78;;;19.70;99.90;;;;;;4990391;28;20038;-52
2023/09/12 00:51:36;;;;;;;66.72;47.08;;;19.70;99.90;;;;;;4991204;28;20589;-53
2023/09/12 00:54:02;;;;;;;63.45;45.90;;;19.70;99.90;;;;;;4990873;28;20038;-53
2023/09/12 00:56:27;;;;;;;61.22;46.92;;;19.70;99.90;;;;;;4990020;28;20053;-51
2023/09/12 00:58:53;;;;;;;;;;;19.80;99.90;;;;;;4989783;28;20034;-51
2023/09/12 01:01:20;;;;;;;52.33;39.78;;;19.80;99.90;;;;;;4990418;28;19918;-52
2023/09/12 01:03:46;;;;;;;54.00;44.10;;;19.80;99.90;;;;;;4990483;28;20030;-54
2023/09/12 01:06:12;;;;;;;;;;;19.80;99.90;;;;;;4991247;28;20098;-56
2023/09/12 01:08:38;;;;;;;60.85;44.65;;;19.90;99.90;;;;;;4990754;28;19968;-52
2023/09/12 01:11:03;;;;;;;;;;;19.90;99.90;;;;;;4990260;28;20485;-56
2023/09/12 01:13:30;;;;;;;52.47;39.22;;;19.90;99.90;;;;;;4990050;28;20435;-50
2023/09/12 01:15:56;;;;;;;58.95;44.70;;;19.90;99.90;;;;;;4990655;28;20046;-55
2023/09/12 01:18:21;;;;;;;58.72;44.30;;;19.80;99.90;;;;;;4989648;28;20038;-52
2023/09/12 01:21:43;;;;;;;60.92;45.55;;;19.80;99.90;;;;;;4989968;28;20113;-53
2023/09/12 01:24:45;;;;;;;56.53;42.55;;;19.80;99.90;;;;;;5002880;28;20041;-56
2023/09/12 01:27:32;;;;;;;53.53;41.63;;;19.80;99.90;;;;;;4984083;28;20551;-54
2023/09/12 01:30:01;;;;;;;50.57;40.27;;;19.80;99.90;;;;;;4989477;28;20048;-54
2023/09/12 01:32:28;;;;;;;51.78;41.50;;;19.90;99.90;;;;;;4990179;28;20130;-55
2023/09/12 01:34:54;;;;;;;48.28;41.22;;;19.90;99.90;;;;;;4990237;28;20038;-52
2023/09/12 01:37:19;;;;;;;;;;;19.90;99.90;;;;;;4988460;28;20054;-53
2023/09/12 01:39:45;;;;;;;92.95;44.55;;;19.90;99.90;;;;;;4990066;28;19922;-51
2023/09/12 01:42:13;;;;;;;;;;;19.80;99.90;;;;;;4990555;28;20026;-54
2023/09/12 01:44:39;;;;;;;67.05;49.47;;;19.60;99.90;;;;;;4990008;28;19919;-52
2023/09/12 01:47:06;;;;;;;64.82;49.42;;;19.50;99.90;;;;;;4989837;28;20116;-52
2023/09/12 01:49:33;;;;;;;72.32;50.13;;;19.40;99.90;;;;;;4988445;28;20580;-54
2023/09/12 01:52:00;;;;;;;69.60;50.70;;;19.40;99.90;;;;;;4989877;28;20065;-54
2023/09/12 01:54:27;;;;;;;68.43;49.15;;;19.30;99.90;;;;;;4988598;28;20512;-53
2023/09/12 01:56:57;;;;;;;75.38;51.60;;;19.30;99.90;;;;;;4989394;28;20038;-54
2023/09/12 01:59:23;;;;;;;69.32;49.33;;;19.30;99.90;;;;;;4988003;28;20034;-50
2023/09/12 02:01:49;;;;;;;67.32;48.78;;;19.30;99.90;;;;;;4989816;28;20449;-55
2023/09/12 02:04:14;;;;;;;69.57;49.00;;;19.30;99.90;;;;;;4989030;28;20084;-52
2023/09/12 02:06:40;;;;;;;;;;;19.30;99.90;;;;;;4990539;28;20070;-55
2023/09/12 02:09:06;;;;;;;73.05;50.83;;;19.40;99.90;;;;;;4989812;28;20000;-53
2023/09/12 02:11:31;;;;;;;66.10;48.45;;;19.30;99.90;;;;;;4989802;28;20092;-55
2023/09/12 02:13:57;;;;;;;;;;;19.30;99.90;;;;;;4990311;28;20038;-54
2023/09/12 02:16:22;;;;;;;54.92;43.28;;;19.40;99.90;;;;;;4989202;28;19921;-53
2023/09/12 02:18:48;;;;;;;;;;;19.40;99.90;;;;;;4989326;28;20405;-53
2023/09/12 02:21:15;;;;;;;56.88;43.88;;;19.50;99.90;;;;;;4989487;28;19922;-53
2023/09/12 02:23:41;;;;;;;54.17;43.53;;;19.50;99.90;;;;;;4988062;28;20034;-56
2023/09/12 02:26:07;;;;;;;51.88;40.95;;;19.50;99.90;;;;;;4985249;28;20034;-54
2023/09/12 02:28:32;;;;;;;;;;;19.50;99.90;;;;;;4985536;28;20536;-49
2023/09/12 02:30:58;;;;;;;46.38;38.47;;;19.50;99.90;;;;;;4989360;28;19917;-55
2023/09/12 02:33:23;;;;;;;;;;;19.50;99.90;;;;;;4983824;28;20556;-55
2023/09/12 02:35:49;;;;;;;51.80;41.13;;;19.50;99.90;;;;;;4989808;28;19924;-55
2023/09/12 02:38:18;;;;;;;55.10;44.55;;;19.50;99.90;;;;;;4989548;28;20126;-56
2023/09/12 02:40:44;;;;;;;56.40;45.35;;;19.50;99.90;;;;;;4987834;28;20061;-56
2023/09/12 02:43:09;;;;;;;54.00;40.67;;;19.50;99.90;;;;;;4990500;28;20120;-51
2023/09/12 02:45:35;;;;;;;43.72;35.65;;;19.50;99.90;;;;;;4989495;28;20045;-54
2023/09/12 02:48:01;;;;;;;;;;;19.40;99.90;;;;;;4994521;28;20042;-54
2023/09/12 02:50:26;;;;;;;74.30;36.83;;;19.30;99.90;;;;;;4992342;28;20009;-55
2023/09/12 02:52:52;;;;;;;;;;;19.30;99.90;;;;;;4988429;28;20039;-53
2023/09/12 02:55:17;;;;;;;49.22;37.80;;;19.30;99.90;;;;;;4988454;28;19921;-51
2023/09/12 02:57:43;;;;;;;;;;;19.30;99.90;;;;;;4988642;28;20557;-50
2023/09/12 03:00:09;;;;;;;48.53;39.88;;;19.30;99.90;;;;;;4987296;28;19922;-50
2023/09/12 03:02:35;;;;;;;43.97;37.80;;;19.30;99.90;;;;;;4987678;28;20450;-50
2023/09/12 03:05:01;;;;;;;188.63;48.38;;;19.30;99.90;;;;;;4988558;28;20039;-48
2023/09/12 03:07:27;;;;;;;49.90;33.67;;;19.40;99.90;;;;;;4988743;28;20078;-50
2023/09/12 03:09:52;;;;;;;52.90;36.13;;;19.30;99.90;;;;;;4988762;28;20081;-52
2023/09/12 03:12:18;;;;;;;;;;;19.30;99.90;;;;;;4988853;28;20057;-52
2023/09/12 03:14:43;;;;;;;45.38;32.70;;;19.20;99.90;;;;;;4989155;28;20343;-49
2023/09/12 03:17:09;;;;;;;;;;;19.20;99.90;;;;;;4989115;28;20038;-51
2023/09/12 03:19:35;;;;;;;40.63;34.60;;;19.20;99.90;;;;;;4988031;28;19926;-50
2023/09/12 03:22:00;;;;;;;45.20;36.50;;;19.20;99.90;;;;;;4986022;28;20039;-51
2023/09/12 03:24:28;;;;;;;117.03;32.55;;;19.20;99.90;;;;;;4988075;28;20409;-50
2023/09/12 03:26:54;;;;;;;46.63;28.85;;;19.20;99.90;;;;;;4988633;28;20468;-51
2023/09/12 03:29:20;;;;;;;54.38;28.35;;;19.20;99.90;;;;;;4987475;28;20122;-56
2023/09/12 03:31:46;;;;;;;;;;;19.20;99.90;;;;;;4987701;28;20050;-53
2023/09/12 03:34:11;;;;;;;104.43;34.28;;;19.20;99.90;;;;;;4989361;28;19918;-55
2023/09/12 03:36:37;;;;;;;;;;;19.10;99.90;;;;;;4989508;28;20085;-50
2023/09/12 03:39:05;;;;;;;101.72;32.08;;;19.10;99.90;;;;;;4983998;28;19918;-51
2023/09/12 03:41:30;;;;;;;40.33;31.13;;;19.10;99.90;;;;;;4988441;28;20042;-54
2023/09/12 03:43:56;;;;;;;173.07;35.80;;;19.10;99.90;;;;;;4989049;28;20497;-52
2023/09/12 03:46:22;;;;;;;213.32;38.05;;;19.10;99.90;;;;;;4988468;28;20035;-54
2023/09/12 03:48:48;;;;;;;;;;;19.10;99.90;;;;;;4989558;28;20113;-55
2023/09/12 03:51:14;;;;;;;80.22;33.83;;;19.20;99.90;;;;;;4988755;28;19918;-51
2023/09/12 03:53:40;;;;;;;100.45;36.33;;;19.20;99.90;;;;;;4988524;28;20069;-52
2023/09/12 03:56:06;;;;;;;;;;;19.20;99.90;;;;;;4989811;28;20485;-52
2023/09/12 03:58:31;;;;;;;106.32;38.72;;;19.20;99.90;;;;;;4987666;28;20311;-52
2023/09/12 04:00:57;;;;;;;284.98;44.50;;;19.20;99.90;;;;;;4985100;28;20088;-50
2023/09/12 04:03:23;;;;;;;;;;;19.20;99.90;;;;;;4990647;28;20034;-56
2023/09/12 04:05:51;;;;;;;178.88;41.63;;;19.20;99.90;;;;;;4992594;28;20012;-55
2023/09/12 04:08:16;;;;;;;140.98;41.03;;;19.20;99.90;;;;;;4992245;28;20042;-55
2023/09/12 04:10:43;;;;;;;316.73;45.83;;;19.20;99.90;;;;;;4990523;28;20048;-54
2023/09/12 04:13:08;;;;;;;306.95;52.75;;;19.20;99.90;;;;;;4992751;28;20405;-53
2023/09/12 04:15:34;;;;;;;99.00;43.03;;;19.10;99.90;;;;;;4990510;28;20045;-51
2023/09/12 04:18:00;;;;;;;;;;;19.20;99.90;;;;;;4992573;28;20540;-53
2023/09/12 04:20:25;;;;;;;87.47;41.33;;;19.10;99.90;;;;;;4989749;28;19981;-55
2023/09/12 04:22:51;;;;;;;96.50;45.22;;;19.10;99.90;;;;;;4991809;28;20455;-55
2023/09/12 04:25:17;;;;;;;;;;;19.20;99.90;;;;;;4992530;28;20409;-54
2023/09/12 04:27:43;;;;;;;73.72;45.10;;;19.20;99.90;;;;;;4989990;28;20336;-52
2023/09/12 04:30:09;;;;;;;63.80;46.05;;;19.20;99.90;;;;;;4990898;28;20121;-52
2023/09/12 04:32:34;;;;;;;75.18;44.28;;;19.20;99.90;;;;;;4992020;28;20042;-54
2023/09/12 04:35:00;;;;;;;121.72;48.13;;;19.20;99.90;;;;;;4992004;28;20038;-54
2023/09/12 04:37:29;;;;;;;65.57;44.50;;;19.30;99.90;;;;;;4991485;28;20038;-54
2023/09/12 04:39:54;;;;;;;81.00;44.53;;;19.30;99.90;;;;;;4991885;28;20043;-53
2023/09/12 04:42:20;;;;;;;80.93;46.70;;;19.30;99.90;;;;;;4985574;28;20030;-51
2023/09/12 04:44:46;;;;;;;64.15;45.28;;;19.30;99.90;;;;;;4991609;28;20034;-53
2023/09/12 04:47:12;;;;;;;60.20;44.42;;;19.30;99.90;;;;;;4990439;28;20080;-55
2023/09/12 04:49:38;;;;;;;;;;;19.30;99.90;;;;;;4991890;28;20045;-54
2023/09/12 04:52:04;;;;;;;49.33;41.55;;;19.30;99.90;;;;;;4991910;28;19918;-55
2023/09/12 04:54:30;;;;;;;;;;;19.30;99.90;;;;;;4991539;28;20050;-56
2023/09/12 04:56:55;;;;;;;99.22;45.03;;;19.30;99.90;;;;;;4991287;28;20380;-52
2023/09/12 04:59:21;;;;;;;;;;;19.30;99.90;;;;;;4990642;28;20075;-52
2023/09/12 05:01:46;;;;;;;106.28;44.45;;;19.40;99.90;;;;;;4991448;28;20376;-52
2023/09/12 05:04:12;;;;;;;108.30;46.97;;;19.40;99.90;;;;;;4991579;28;20073;-53
2023/09/12 05:06:38;;;;;;;67.90;43.78;;;19.30;99.90;;;;;;4989935;28;20035;-56
2023/09/12 05:09:05;;;;;;;63.40;44.25;;;19.30;99.90;;;;;;4991223;28;20129;-55
2023/09/12 05:11:31;;;;;;;73.18;44.63;;;19.30;99.90;;;;;;4991177;28;20696;-51
2023/09/12 05:13:56;;;;;;;60.67;41.67;;;19.30;99.90;;;;;;4991081;28;20136;-55
2023/09/12 05:16:22;;;;;;;51.38;40.65;;;19.30;99.90;;;;;;4991320;28;20038;-55
2023/09/12 05:18:49;;;;;;;63.60;43.97;;;19.30;99.90;;;;;;4990899;28;20092;-52
2023/09/12 05:21:15;;;;;;;61.00;43.25;;;19.30;99.90;;;;;;4991022;28;20125;-53
2023/09/12 05:23:40;;;;;;;55.97;41.80;;;19.30;99.90;;;;;;4989474;28;20121;-56
2023/09/12 05:26:06;;;;;;;;;;;19.20;99.90;;;;;;4991466;28;20078;-55
2023/09/12 05:28:32;;;;;;;58.38;43.35;;;19.30;99.90;;;;;;4991066;28;19918;-52
2023/09/12 05:30:57;;;;;;;;;;;19.30;99.90;;;;;;4995818;28;20046;-54
2023/09/12 05:33:23;;;;;;;53.13;40.05;;;19.30;99.90;;;;;;4991519;28;19985;-50
2023/09/12 05:35:48;;;;;;;;;;;19.30;99.90;;;;;;4989998;28;20080;-55
2023/09/12 05:38:14;;;;;;;55.80;40.28;;;19.40;99.90;;;;;;4990176;28;19921;-51
2023/09/12 05:40:39;;;;;;;;;;;19.40;99.90;;;;;;4991196;28;20085;-50
2023/09/12 05:43:05;;;;;;;59.53;41.50;;;19.40;99.90;;;;;;4985383;28;19922;-50
2023/09/12 05:45:32;;;;;;;;;;;19.40;99.90;;;;;;4989859;28;20125;-50
2023/09/12 05:47:58;;;;;;;60.63;42.95;;;19.30;99.90;;;;;;4987542;28;20040;-54
2023/09/12 05:50:24;;;;;;;61.47;41.92;;;19.30;99.90;;;;;;4990507;28;20050;-54
2023/09/12 05:52:50;;;;;;;64.20;44.78;;;19.40;99.90;;;;;;4990767;28;20069;-50
2023/09/12 05:55:16;;;;;;;68.35;44.80;;;19.30;99.90;;;;;;4986464;28;20042;-51
2023/09/12 05:57:42;;;;;;;62.33;44.75;;;19.30;99.90;;;;;;4987978;28;20122;-50
2023/09/12 06:00:11;;;;;;;;;;;19.30;99.90;;;;;;4989559;28;20479;-49
2023/09/12 06:02:38;;;;;;;70.22;44.97;;;19.30;99.90;;;;;;4990493;28;19926;-50
2023/09/12 06:05:04;;;;;;;70.22;46.33;;;19.30;99.90;;;;;;4987690;28;20449;-50
2023/09/12 06:07:30;;;;;;;;;;;19.20;99.90;;;;;;4991047;28;20042;-52
2023/09/12 06:09:56;;;;;;;67.32;45.63;;;19.20;99.90;;;;;;4988167;28;19958;-54
2023/09/12 06:12:22;;;;;;;64.55;44.40;;;19.10;99.90;;;;;;4989393;28;20080;-52
2023/09/12 06:14:48;;;;;;;69.72;46.90;;;19.10;99.90;;;;;;4988519;28;20053;-55
2023/09/12 06:17:14;;;;;;;64.25;45.25;;;19.10;99.90;;;;;;4989266;28;20038;-55
2023/09/12 06:19:39;;;;;;;;;;;19.10;99.90;;;;;;4990640;28;20038;-54
2023/09/12 06:22:05;;;;;;;77.63;49.80;;;19.10;99.90;;;;;;4989567;28;19928;-53
2023/09/12 06:24:30;;;;;;;70.70;49.30;;;19.10;99.90;;;;;;4989975;28;20494;-51
2023/09/12 06:26:57;;;;;;;;;;;19.10;99.90;;;;;;4982759;28;20050;-54
2023/09/12 06:29:22;;;;;;;79.03;48.90;;;19.10;99.90;;;;;;4988047;28;19918;-54
2023/09/12 06:31:48;;;;;;;75.45;48.92;;;19.10;99.90;;;;;;4984179;28;20034;-52
2023/09/12 06:34:14;;;;;;;;;;;19.00;99.90;;;;;;4986680;28;20039;-49
2023/09/12 06:36:41;;;;;;;75.30;48.25;;;19.00;99.90;;;;;;4986273;28;19922;-54
2023/09/12 06:39:07;;;;;;;61.92;44.63;;;19.00;99.90;;;;;;4983789;28;20042;-54
2023/09/12 06:41:32;;;;;;;64.50;46.20;;;18.90;99.90;;;;;;4987695;28;20093;-54
2023/09/12 06:43:58;;;;;;;66.45;46.28;;;18.90;99.90;;;;;;4985260;28;20469;-55
2023/09/12 06:46:24;;;;;;;;;;;19.00;99.90;;;;;;4987875;28;20038;-51
2023/09/12 06:48:50;;;;;;;69.82;49.30;;;19.00;99.90;;;;;;4982401;28;19964;-55
2023/09/12 06:51:16;;;;;;;71.15;47.35;;;19.00;99.90;;;;;;4985248;28;20046;-56
2023/09/12 06:53:42;;;;;;;69.90;49.30;;;19.10;99.90;;;;;;4985089;28;20040;-55
2023/09/12 06:56:07;;;;;;;67.30;44.80;;;19.10;99.90;;;;;;4989058;28;20045;-55
2023/09/12 06:58:33;;;;;;;66.30;45.42;;;19.20;99.90;;;;;;4981729;28;20046;-56
2023/09/12 07:01:03;;;;;;;;;;;19.20;99.90;;;;;;4989435;28;20072;-54
2023/09/12 07:03:28;;;;;;;68.88;44.40;;;19.20;99.90;;;;;;4984264;28;19961;-54
2023/09/12 07:05:54;;;;;;;79.20;49.95;;;19.30;99.90;;;;;;4989483;28;20066;-55
2023/09/12 07:08:19;;;;;;;71.05;48.15;;;19.30;99.90;;;;;;4987548;28;20039;-52
2023/09/12 07:10:45;;;;;;;64.65;43.92;;;19.30;99.90;;;;;;4987160;28;20043;-52
2023/09/12 07:13:11;;;;;;;;;;;19.40;99.90;;;;;;4986084;28;20097;-55
2023/09/12 07:15:37;;;;;;;68.78;44.13;;;19.40;99.90;;;;;;4986997;28;20175;-54
2023/09/12 07:18:02;;;;;;;;;;;19.40;99.90;;;;;;4984991;28;20427;-53
2023/09/12 07:20:28;;;;;;;62.10;43.00;;;19.40;99.90;;;;;;4981074;28;20462;-55
2023/09/12 07:22:53;;;;;;;;;;;19.40;99.90;;;;;;4977460;28;20042;-53
2023/09/12 07:25:20;;;;;;;67.43;43.22;;;19.40;99.90;;;;;;4978621;28;20331;-53
2023/09/12 07:27:46;;;;;;;69.25;44.33;;;19.40;99.90;;;;;;4986649;28;20057;-52
2023/09/12 07:30:12;;;;;;;61.65;40.97;;;19.50;99.90;;;;;;4984339;28;20050;-54
2023/09/12 07:32:37;;;;;;;;;;;19.50;99.90;;;;;;4981438;28;20042;-51
2023/09/12 07:35:03;;;;;;;67.20;45.50;;;19.60;99.90;;;;;;4981943;28;19925;-52
2023/09/12 07:37:29;;;;;;;;;;;19.60;99.90;;;;;;4990177;28;20497;-51
2023/09/12 07:39:54;;;;;;;69.57;45.33;;;19.60;99.90;;;;;;4994828;28;19926;-51
2023/09/12 07:42:24;;;;;;;67.45;44.53;;;19.50;99.90;;;;;;4996334;28;20034;-55
2023/09/12 07:44:49;;;;;;;66.53;45.60;;;19.60;99.90;;;;;;4987447;28;20040;-53
2023/09/12 07:47:15;;;;;;;65.45;43.58;;;19.60;99.90;;;;;;4989251;28;20045;-51
2023/09/12 07:49:41;;;;;;;69.50;46.90;;;19.70;99.90;;;;;;4986598;28;20066;-54
2023/09/12 07:52:07;;;;;;;72.38;49.95;;;19.70;99.90;;;;;;4989566;28;20479;-55
2023/09/12 07:54:32;;;;;;;;;;;19.70;99.90;;;;;;4991573;28;20384;-54
2023/09/12 07:56:58;;;;;;;66.40;46.10;;;19.60;99.90;;;;;;4989162;28;19932;-51
2023/09/12 07:59:24;;;;;;;;;;;19.60;99.90;;;;;;4990399;28;20038;-52
2023/09/12 08:01:49;;;;;;;62.10;44.10;;;19.50;99.90;;;;;;4992254;28;20011;-52
2023/09/12 08:04:15;;;;;;;66.07;43.67;;;19.40;99.90;;;;;;4989888;28;20045;-55
2023/09/12 08:06:41;;;;;;;;;;;19.40;99.90;;;;;;4988426;28;20035;-53
2023/09/12 08:09:08;;;;;;;71.85;43.75;;;19.40;99.90;;;;;;4985337;28;19917;-51
2023/09/12 08:11:33;;;;;;;71.93;45.38;;;19.50;99.90;;;;;;4988230;28;20404;-55
2023/09/12 08:13:59;;;;;;;64.20;45.30;;;19.60;99.90;;;;;;4989614;28;20209;-52
2023/09/12 08:16:24;;;;;;;67.40;44.67;;;19.70;99.90;;;;;;4987206;28;20058;-54
2023/09/12 08:18:50;;;;;;;;;;;19.70;99.90;;;;;;4986923;28;20034;-55
2023/09/12 08:21:16;;;;;;;62.22;40.28;;;19.70;99.90;;;;;;4987541;28;19925;-51
2023/09/12 08:23:41;;;;;;;;;;;19.70;99.90;;;;;;4993022;28;20532;-53
2023/09/12 08:26:08;;;;;;;54.92;40.38;;;19.70;99.90;;;;;;4991834;28;19932;-54
2023/09/12 08:28:34;;;;;;;63.17;41.67;;;19.70;99.90;;;;;;4987329;28;20037;-54
2023/09/12 08:31:00;;;;;;;62.00;39.42;;;19.70;99.90;;;;;;4987627;28;20030;-54
2023/09/12 08:33:25;;;;;;;;;;;19.70;99.90;;;;;;4988526;28;20070;-49
2023/09/12 08:35:51;;;;;;;58.05;40.00;;;19.70;99.90;;;;;;4988109;28;19925;-50
2023/09/12 08:38:17;;;;;;;;;;;19.70;99.90;;;;;;4986204;28;20050;-50
2023/09/12 08:40:51;;;;;;;55.28;38.83;;;19.70;99.90;;;;;;4987406;28;19917;-52
2023/09/12 08:43:17;;;;;;;57.25;40.17;;;19.80;99.90;;;;;;4988569;28;20080;-50
2023/09/12 08:45:46;;;;;;;60.85;42.70;;;19.80;99.90;;;;;;4989201;28;20165;-52
2023/09/12 08:48:12;;;;;;;69.90;43.42;;;19.90;99.90;;;;;;4989124;28;20434;-55
2023/09/12 08:50:38;;;;;;;61.75;43.50;;;19.80;99.90;;;;;;4989412;28;20059;-51
2023/09/12 08:53:04;;;;;;;;;;;19.80;99.90;;;;;;4988774;28;20210;-56
2023/09/12 08:55:33;;;;;;;60.30;41.47;;;19.80;99.90;;;;;;4986888;28;19926;-50
2023/09/12 08:57:59;;;;;;;60.58;43.33;;;19.80;99.90;;;;;;4986536;28;20054;-49
2023/09/12 09:00:27;;;;;;;64.10;44.13;;;19.90;99.90;;;;;;4987358;28;20398;-51
2023/09/12 09:02:53;;;;;;;66.18;45.05;;;19.90;99.90;;;;;;4999224;28;20060;-49
2023/09/12 09:05:22;;;;;;;63.45;43.97;;;20.00;99.90;;;;;;4988481;28;20046;-52
2023/09/12 09:07:48;;;;;;;64.93;44.35;;;20.00;99.90;;;;;;4987098;28;20042;-51
2023/09/12 09:10:17;;;;;;;67.53;45.42;;;20.00;99.90;;;;;;4971253;28;20097;-51
2023/09/12 09:12:45;;;;;;;66.65;43.75;;;20.00;99.90;;;;;;4984594;28;20125;-51
2023/09/12 09:15:41;;;;;;;62.80;44.72;;;20.10;99.90;;;;;;5000577;28;20073;-51
2023/09/12 09:18:07;;;;;;;66.90;44.63;;;20.10;99.90;;;;;;4983681;28;20141;-55
2023/09/12 09:20:34;;;;;;;60.97;41.75;;;20.20;99.90;;;;;;4986019;28;20038;-53
2023/09/12 09:23:10;;;;;;;56.92;41.20;;;20.30;99.90;;;;;;4967434;28;20045;-49
2023/09/12 09:25:40;;;;;;;53.20;39.60;;;20.40;99.90;;;;;;4985872;28;20048;-51
2023/09/12 09:28:17;;;;;;;52.33;39.08;;;20.50;99.90;;;;;;4986030;28;20505;-50
2023/09/12 09:30:44;;;;;;;;;;;20.50;99.90;;;;;;4985155;28;20472;-52
2023/09/12 09:33:11;;;;;;;51.95;36.65;;;20.60;99.90;;;;;;4986766;28;20195;-51
2023/09/12 09:35:38;;;;;;;47.55;36.67;;;20.70;99.90;;;;;;4988291;28;20072;-49
2023/09/12 09:38:05;;;;;;;47.42;35.67;;;20.80;99.90;;;;;;4986861;28;20046;-51
2023/09/12 09:40:33;;;;;;;49.50;37.10;;;20.80;99.90;;;;;;4985015;28;20656;-48
2023/09/12 09:43:00;;;;;;;50.55;36.88;;;20.80;99.90;;;;;;4985404;28;20050;-49
2023/09/12 09:45:26;;;;;;;50.30;35.60;;;20.90;99.90;;;;;;4987465;28;20034;-48
2023/09/12 09:47:52;;;;;;;47.83;34.97;;;20.90;99.90;;;;;;4980168;28;20409;-51
2023/09/12 09:50:17;;;;;;;;;;;21.00;99.90;;;;;;4987335;28;20050;-49
2023/09/12 09:52:44;;;;;;;40.75;31.48;;;21.20;99.90;;;;;;4972065;28;19921;-50
2023/09/12 09:55:16;;;;;;;42.30;32.70;;;21.50;99.90;;;;;;4989360;28;20096;-47
2023/09/12 09:57:41;;;;;;;39.50;31.08;;;21.90;99.90;;;;;;4966760;28;20046;-54
2023/09/12 10:00:11;;;;;;;;;;;22.20;99.90;;;;;;4982531;28;20317;-52
2023/09/12 10:02:39;;;;;;;39.83;29.85;;;22.50;99.90;;;;;;4985436;28;20241;-49
2023/09/12 10:05:06;;;;;;;37.83;29.63;;;22.60;99.90;;;;;;4982033;28;20507;-50
2023/09/12 10:07:33;;;;;;;39.28;30.20;;;22.80;99.90;;;;;;4983785;28;20512;-51
2023/09/12 10:10:02;;;;;;;40.92;31.88;;;23.00;99.90;;;;;;4981323;28;20045;-52
2023/09/12 10:12:34;;;;;;;39.05;30.02;;;23.20;99.90;;;;;;4966125;28;20108;-48
2023/09/12 10:15:01;;;;;;;37.40;31.08;;;23.40;99.90;;;;;;4978698;28;20042;-50
2023/09/12 10:17:34;;;;;;;40.75;31.23;;;23.60;99.90;;;;;;4981098;28;20529;-48
2023/09/12 10:20:09;;;;;;;36.53;30.80;;;23.70;99.90;;;;;;4980479;28;20477;-51
2023/09/12 10:22:39;;;;;;;38.00;32.25;;;23.60;99.90;;;;;;4983539;28;20038;-54
2023/09/12 10:25:06;;;;;;;36.97;30.92;;;23.60;99.90;;;;;;4984328;28;20413;-47
2023/09/12 10:27:33;;;;;;;36.38;28.77;;;23.70;99.90;;;;;;4982275;28;20043;-50
2023/09/12 10:30:00;;;;;;;33.53;26.13;;;23.80;99.90;;;;;;4983507;28;20049;-53
2023/09/12 10:32:28;;;;;;;30.75;25.98;;;23.80;99.90;;;;;;4982977;28;20199;-51
2023/09/12 10:34:58;;;;;;;34.10;27.17;;;23.80;99.90;;;;;;4984156;28;20386;-46
2023/09/12 10:37:25;;;;;;;30.70;26.15;;;23.90;99.90;;;;;;4984655;28;20045;-51
2023/09/12 10:39:53;;;;;;;36.92;27.85;;;24.00;99.90;;;;;;4981811;28;20034;-50
2023/09/12 10:42:20;;;;;;;30.50;25.65;;;24.00;99.90;;;;;;4984146;28;20511;-48
2023/09/12 10:44:46;;;;;;;39.17;26.08;;;24.10;99.90;;;;;;4980871;28;20034;-50
2023/09/12 10:47:13;;;;;;;31.70;25.92;;;24.30;99.90;;;;;;4984531;28;20058;-51
2023/09/12 10:49:43;;;;;;;27.85;24.25;;;24.40;99.90;;;;;;4984232;28;20220;-48
2023/09/12 10:52:09;;;;;;;28.48;24.63;;;24.50;99.90;;;;;;4977420;28;20379;-49
2023/09/12 10:54:39;;;;;;;33.17;25.80;;;24.60;99.90;;;;;;4982048;28;20042;-49
2023/09/12 10:57:11;;;;;;;30.73;26.08;;;24.60;99.90;;;;;;4984490;28;21970;-49
2023/09/12 10:59:57;;;;;;;32.38;26.35;;;24.70;99.90;;;;;;4984527;28;20110;-47
2023/09/12 11:02:34;;;;;;;29.67;25.52;;;24.70;99.90;;;;;;4984816;28;20225;-50
2023/09/12 11:05:04;;;;;;;30.25;23.50;;;24.70;99.90;;;;;;4985861;28;20045;-52
2023/09/12 11:07:33;;;;;;;30.50;24.08;;;24.70;99.90;;;;;;4988360;28;20043;-51
2023/09/12 11:10:19;;;;;;;34.95;25.20;;;24.70;99.90;;;;;;4982504;28;20034;-49
2023/09/12 11:12:50;;;;;;;35.50;26.73;;;24.70;99.90;;;;;;4987087;28;20080;-50
2023/09/12 11:15:17;;;;;;;30.98;25.58;;;24.70;99.90;;;;;;4986905;28;20042;-51
2023/09/12 11:17:44;;;;;;;30.42;25.08;;;24.50;99.90;;;;;;4985815;28;20042;-51
2023/09/12 11:20:11;;;;;;;29.08;25.73;;;24.40;99.90;;;;;;4986733;28;20449;-50
2023/09/12 11:22:41;;;;;;;31.70;27.27;;;24.40;99.90;;;;;;4978797;28;20053;-48
2023/09/12 11:25:25;;;;;;;30.08;25.13;;;24.30;99.90;;;;;;4984708;28;20085;-49
2023/09/12 11:27:51;;;;;;;32.17;24.92;;;24.10;99.90;;;;;;4986891;28;20137;-50
2023/09/12 11:30:21;;;;;;;38.38;29.20;;;24.20;99.90;;;;;;4986672;28;20133;-51
2023/09/12 11:32:50;;;;;;;34.00;24.00;;;24.30;99.90;;;;;;4986513;28;20100;-50
2023/09/12 11:35:17;;;;;;;29.77;25.17;;;24.40;99.90;;;;;;4986434;28;20493;-51
2023/09/12 11:37:49;;;;;;;31.38;26.30;;;24.50;99.90;;;;;;4987858;28;20050;-51
2023/09/12 11:40:16;;;;;;;30.63;25.25;;;24.50;99.90;;;;;;4985986;28;20034;-51
2023/09/12 11:42:43;;;;;;;30.42;23.55;;;24.40;99.90;;;;;;4985721;28;21350;-55
2023/09/12 11:45:10;;;;;;;32.33;25.17;;;24.30;99.90;;;;;;4984940;28;20034;-50
2023/09/12 11:47:41;;;;;;;28.60;23.30;;;24.20;99.90;;;;;;4986625;28;20037;-51
2023/09/12 11:50:07;;;;;;;29.58;24.52;;;24.10;99.90;;;;;;4986832;28;20038;-48
2023/09/12 11:52:37;;;;;;;30.65;24.23;;;24.20;99.90;;;;;;4987138;28;20143;-50
2023/09/12 11:55:03;;;;;;;31.35;23.40;;;24.20;99.90;;;;;;4987066;28;20618;-54
2023/09/12 11:57:29;;;;;;;26.75;21.05;;;24.10;99.90;;;;;;4985263;28;20223;-54
2023/09/12 11:59:56;;;;;;;26.10;20.63;;;24.10;99.90;;;;;;4985760;28;20088;-52
2023/09/12 12:02:23;;;;;;;23.45;20.90;;;24.30;99.90;;;;;;4986230;28;20026;-53
2023/09/12 12:04:50;;;;;;;23.17;19.60;;;24.40;99.90;;;;;;4982251;28;20042;-55
2023/09/12 12:07:15;;;;;;;23.38;17.98;;;24.50;99.90;;;;;;4986894;28;20123;-54
2023/09/12 12:09:41;;;;;;;23.90;18.88;;;24.60;99.90;;;;;;4984950;28;20040;-52
2023/09/12 12:12:14;;;;;;;22.17;19.23;;;24.60;99.90;;;;;;4983339;28;20038;-54
2023/09/12 12:14:41;;;;;;;24.50;20.52;;;24.60;99.90;;;;;;4983970;28;20409;-53
2023/09/12 12:17:11;;;;;;;26.48;20.48;;;24.50;99.90;;;;;;4984363;28;20035;-49
2023/09/12 12:19:38;;;;;;;20.70;18.35;;;24.40;99.90;;;;;;4984842;28;20054;-54
2023/09/12 12:22:09;;;;;;;22.40;19.40;;;24.50;99.90;;;;;;4985488;28;20045;-52
2023/09/12 12:24:38;;;;;;;21.73;18.92;;;24.60;99.90;;;;;;4981708;28;20521;-51
2023/09/12 12:27:04;;;;;;;22.20;18.25;;;24.70;99.90;;;;;;4983875;28;20117;-54
2023/09/12 12:29:30;;;;;;;25.10;20.00;;;24.60;99.90;;;;;;4983634;28;20173;-55
2023/09/12 12:32:01;;;;;;;19.67;17.33;;;24.60;99.90;;;;;;4979517;28;20041;-52
2023/09/12 12:34:27;;;;;;;23.65;18.20;;;24.70;99.90;;;;;;4984937;28;20508;-49
2023/09/12 12:36:54;;;;;;;21.98;18.42;;;24.70;99.90;;;;;;4984388;28;20058;-50
2023/09/12 12:39:21;;;;;;;21.40;18.95;;;24.70;99.90;;;;;;4985232;28;20046;-50
2023/09/12 12:41:47;;;;;;;18.05;16.10;;;24.90;99.90;;;;;;4982686;28;20027;-54
2023/09/12 12:44:15;;;;;;;17.85;14.98;;;24.90;99.90;;;;;;4985350;28;20069;-48